sensor_id;sensor_type;location;lat;lon;timestamp;pressure;altitude;pressure_sealevel;temperature;humidity
50684;BME280;36654;45.042;38.994;2022-12-18T00:01:21;101727.56;;;10.72;70.90
50684;BME280;36654;45.042;38.994;2022-12-18T00:03:48;101720.28;;;10.65;71.64
50684;BME280;36654;45.042;38.994;2022-12-18T00:06:15;101716.88;;;10.69;71.14
50684;BME280;36654;45.042;38.994;2022-12-18T00:08:41;101713.22;;;10.64;71.39
50684;BME280;36654;45.042;38.994;2022-12-18T00:11:10;101712.22;;;10.60;71.20
50684;BME280;36654;45.042;38.994;2022-12-18T00:13:35;101716.78;;;10.66;71.10
50684;BME280;36654;45.042;38.994;2022-12-18T00:16:03;101706.63;;;10.49;71.16
50684;BME280;36654;45.042;38.994;2022-12-18T00:18:29;101728.09;;;10.58;71.45
50684;BME280;36654;45.042;38.994;2022-12-18T00:20:58;101734.41;;;10.64;71.44
50684;BME280;36654;45.042;38.994;2022-12-18T00:23:27;101721.88;;;10.58;71.07
50684;BME280;36654;45.042;38.994;2022-12-18T00:25:53;101752.19;;;10.68;71.05
50684;BME280;36654;45.042;38.994;2022-12-18T00:28:18;101731.63;;;10.59;71.03
50684;BME280;36654;45.042;38.994;2022-12-18T00:30:44;101737.97;;;10.66;70.85
50684;BME280;36654;45.042;38.994;2022-12-18T00:33:09;101713.69;;;10.49;71.20
50684;BME280;36654;45.042;38.994;2022-12-18T00:35:35;101727.47;;;10.69;71.01
50684;BME280;36654;45.042;38.994;2022-12-18T00:38:00;101743.41;;;10.69;70.92
50684;BME280;36654;45.042;38.994;2022-12-18T00:40:26;101732.59;;;10.63;70.91
50684;BME280;36654;45.042;38.994;2022-12-18T00:42:52;101744.91;;;10.61;71.04
50684;BME280;36654;45.042;38.994;2022-12-18T00:45:25;101742.88;;;10.50;70.98
50684;BME280;36654;45.042;38.994;2022-12-18T00:47:51;101755.38;;;10.54;71.26
50684;BME280;36654;45.042;38.994;2022-12-18T00:50:17;101741.69;;;10.39;71.40
50684;BME280;36654;45.042;38.994;2022-12-18T00:52:43;101691.03;;;9.98;71.62
50684;BME280;36654;45.042;38.994;2022-12-18T00:55:09;101770.06;;;10.43;71.78
50684;BME280;36654;45.042;38.994;2022-12-18T00:57:34;101759.38;;;10.40;71.71
50684;BME280;36654;45.042;38.994;2022-12-18T01:00:00;101772.72;;;10.43;71.72
50684;BME280;36654;45.042;38.994;2022-12-18T01:02:26;101730.72;;;10.27;71.96
50684;BME280;36654;45.042;38.994;2022-12-18T01:04:52;101762.84;;;10.38;72.16
50684;BME280;36654;45.042;38.994;2022-12-18T01:07:17;101745.72;;;10.26;71.89
50684;BME280;36654;45.042;38.994;2022-12-18T01:09:43;101759.31;;;10.37;71.93
50684;BME280;36654;45.042;38.994;2022-12-18T01:12:08;101765.38;;;10.33;71.97
50684;BME280;36654;45.042;38.994;2022-12-18T01:14:34;101757.06;;;10.22;72.16
50684;BME280;36654;45.042;38.994;2022-12-18T01:17:00;101780.13;;;10.25;72.42
50684;BME280;36654;45.042;38.994;2022-12-18T01:19:27;101765.09;;;10.24;72.69
50684;BME280;36654;45.042;38.994;2022-12-18T01:21:53;101713.13;;;9.99;72.85
50684;BME280;36654;45.042;38.994;2022-12-18T01:24:19;101747.69;;;10.03;72.88
50684;BME280;36654;45.042;38.994;2022-12-18T01:26:45;101762.81;;;10.07;72.90
50684;BME280;36654;45.042;38.994;2022-12-18T01:29:10;101716.97;;;9.80;73.34
50684;BME280;36654;45.042;38.994;2022-12-18T01:31:36;101753.56;;;9.93;73.60
50684;BME280;36654;45.042;38.994;2022-12-18T01:34:03;101758.16;;;9.99;73.64
50684;BME280;36654;45.042;38.994;2022-12-18T01:36:34;101745.75;;;9.98;73.89
50684;BME280;36654;45.042;38.994;2022-12-18T01:39:03;101744.88;;;9.97;74.17
50684;BME280;36654;45.042;38.994;2022-12-18T01:41:31;101739.66;;;10.00;73.86
50684;BME280;36654;45.042;38.994;2022-12-18T01:50:42;101728.88;;;9.94;73.80
50684;BME280;36654;45.042;38.994;2022-12-18T01:56:30;101729.50;;;10.15;73.38
50684;BME280;36654;45.042;38.994;2022-12-18T01:59:01;101719.41;;;10.31;72.83
50684;BME280;36654;45.042;38.994;2022-12-18T02:01:45;101716.28;;;10.47;72.10
50684;BME280;36654;45.042;38.994;2022-12-18T02:04:25;101718.50;;;10.64;71.32
50684;BME280;36654;45.042;38.994;2022-12-18T02:07:03;101709.06;;;10.75;70.24
50684;BME280;36654;45.042;38.994;2022-12-18T02:09:43;101697.75;;;10.82;69.60
50684;BME280;36654;45.042;38.994;2022-12-18T02:12:23;101715.13;;;11.06;68.82
50684;BME280;36654;45.042;38.994;2022-12-18T02:15:00;101712.88;;;11.21;68.50
50684;BME280;36654;45.042;38.994;2022-12-18T02:17:45;101708.47;;;11.23;67.98
50684;BME280;36654;45.042;38.994;2022-12-18T02:20:18;101698.69;;;11.19;67.65
50684;BME280;36654;45.042;38.994;2022-12-18T02:26:15;101733.94;;;11.15;67.96
50684;BME280;36654;45.042;38.994;2022-12-18T02:31:29;101711.28;;;10.93;68.07
50684;BME280;36654;45.042;38.994;2022-12-18T02:33:59;101727.88;;;11.19;67.98
50684;BME280;36654;45.042;38.994;2022-12-18T02:36:26;101725.41;;;11.28;67.50
50684;BME280;36654;45.042;38.994;2022-12-18T02:38:54;101698.88;;;11.28;67.10
50684;BME280;36654;45.042;38.994;2022-12-18T02:41:24;101734.84;;;11.52;66.95
50684;BME280;36654;45.042;38.994;2022-12-18T02:44:01;101719.84;;;11.55;66.55
50684;BME280;36654;45.042;38.994;2022-12-18T02:46:45;101714.75;;;11.64;65.86
50684;BME280;36654;45.042;38.994;2022-12-18T02:52:22;101725.03;;;11.87;65.31
50684;BME280;36654;45.042;38.994;2022-12-18T02:55:16;101725.81;;;11.84;65.44
50684;BME280;36654;45.042;38.994;2022-12-18T02:58:00;101724.88;;;11.82;65.09
50684;BME280;36654;45.042;38.994;2022-12-18T03:00:36;101732.03;;;11.83;65.07
50684;BME280;36654;45.042;38.994;2022-12-18T03:03:09;101725.66;;;11.77;65.33
50684;BME280;36654;45.042;38.994;2022-12-18T03:05:45;101719.41;;;11.73;65.09
50684;BME280;36654;45.042;38.994;2022-12-18T03:08:19;101726.28;;;11.65;65.25
50684;BME280;36654;45.042;38.994;2022-12-18T03:11:11;101719.97;;;11.60;65.86
50684;BME280;36654;45.042;38.994;2022-12-18T03:13:42;101741.25;;;11.61;65.75
50684;BME280;36654;45.042;38.994;2022-12-18T03:16:11;101735.66;;;11.49;65.85
50684;BME280;36654;45.042;38.994;2022-12-18T03:18:47;101732.66;;;11.35;66.21
50684;BME280;36654;45.042;38.994;2022-12-18T03:21:17;101737.91;;;11.32;66.54
50684;BME280;36654;45.042;38.994;2022-12-18T03:23:44;101749.28;;;11.27;66.80
50684;BME280;36654;45.042;38.994;2022-12-18T03:26:16;101732.00;;;11.08;67.08
50684;BME280;36654;45.042;38.994;2022-12-18T03:28:51;101753.22;;;11.08;67.16
50684;BME280;36654;45.042;38.994;2022-12-18T03:31:21;101744.50;;;11.12;67.29
50684;BME280;36654;45.042;38.994;2022-12-18T03:33:51;101751.81;;;11.22;67.13
50684;BME280;36654;45.042;38.994;2022-12-18T03:36:17;101711.81;;;11.14;66.66
50684;BME280;36654;45.042;38.994;2022-12-18T03:38:42;101741.03;;;11.52;65.98
50684;BME280;36654;45.042;38.994;2022-12-18T03:49:18;101749.22;;;11.99;64.08
50684;BME280;36654;45.042;38.994;2022-12-18T03:54:16;101757.28;;;12.04;63.72
50684;BME280;36654;45.042;38.994;2022-12-18T03:56:47;101763.03;;;11.84;63.81
50684;BME280;36654;45.042;38.994;2022-12-18T03:59:15;101766.34;;;11.74;64.36
50684;BME280;36654;45.042;38.994;2022-12-18T04:01:46;101748.63;;;11.73;64.22
50684;BME280;36654;45.042;38.994;2022-12-18T04:04:13;101755.84;;;11.80;64.19
50684;BME280;36654;45.042;38.994;2022-12-18T04:06:40;101738.06;;;11.78;63.96
50684;BME280;36654;45.042;38.994;2022-12-18T04:09:07;101731.75;;;11.71;64.07
50684;BME280;36654;45.042;38.994;2022-12-18T04:11:33;101776.25;;;11.81;63.99
50684;BME280;36654;45.042;38.994;2022-12-18T04:13:59;101776.00;;;11.71;64.42
50684;BME280;36654;45.042;38.994;2022-12-18T04:16:25;101758.22;;;11.68;64.58
50684;BME280;36654;45.042;38.994;2022-12-18T04:18:51;101764.00;;;11.86;64.38
50684;BME280;36654;45.042;38.994;2022-12-18T04:21:17;101767.75;;;11.98;63.73
50684;BME280;36654;45.042;38.994;2022-12-18T04:23:42;101764.28;;;12.00;63.53
50684;BME280;36654;45.042;38.994;2022-12-18T04:26:08;101772.25;;;11.99;63.12
50684;BME280;36654;45.042;38.994;2022-12-18T04:28:34;101763.91;;;11.85;63.18
50684;BME280;36654;45.042;38.994;2022-12-18T04:30:59;101763.81;;;11.80;63.61
50684;BME280;36654;45.042;38.994;2022-12-18T04:33:25;101755.75;;;11.76;63.60
50684;BME280;36654;45.042;38.994;2022-12-18T04:35:50;101744.31;;;11.78;63.95
50684;BME280;36654;45.042;38.994;2022-12-18T04:38:16;101751.72;;;11.92;63.66
50684;BME280;36654;45.042;38.994;2022-12-18T04:40:42;101725.06;;;11.89;63.06
50684;BME280;36654;45.042;38.994;2022-12-18T04:43:08;101756.44;;;12.06;62.74
50684;BME280;36654;45.042;38.994;2022-12-18T04:45:34;101764.44;;;12.06;62.69
50684;BME280;36654;45.042;38.994;2022-12-18T04:48:00;101754.59;;;12.02;62.59
50684;BME280;36654;45.042;38.994;2022-12-18T04:50:27;101757.75;;;11.86;62.72
50684;BME280;36654;45.042;38.994;2022-12-18T04:52:53;101763.22;;;11.92;62.72
50684;BME280;36654;45.042;38.994;2022-12-18T04:55:19;101727.31;;;11.72;62.82
50684;BME280;36654;45.042;38.994;2022-12-18T04:57:45;101767.84;;;12.01;62.60
50684;BME280;36654;45.042;38.994;2022-12-18T05:03:23;101769.31;;;11.88;62.70
50684;BME280;36654;45.042;38.994;2022-12-18T05:05:50;101781.72;;;11.87;62.89
50684;BME280;36654;45.042;38.994;2022-12-18T05:08:16;101768.38;;;11.86;62.87
50684;BME280;36654;45.042;38.994;2022-12-18T05:10:42;101760.63;;;11.94;62.66
50684;BME280;36654;45.042;38.994;2022-12-18T05:13:07;101773.28;;;12.07;62.71
50684;BME280;36654;45.042;38.994;2022-12-18T05:15:33;101775.22;;;12.14;61.97
50684;BME280;36654;45.042;38.994;2022-12-18T05:18:00;101762.03;;;12.19;61.54
50684;BME280;36654;45.042;38.994;2022-12-18T05:20:26;101764.97;;;12.33;61.34
50684;BME280;36654;45.042;38.994;2022-12-18T05:22:52;101727.38;;;12.14;61.10
50684;BME280;36654;45.042;38.994;2022-12-18T05:25:19;101761.56;;;12.40;60.94
50684;BME280;36654;45.042;38.994;2022-12-18T05:27:44;101781.09;;;12.42;60.97
50684;BME280;36654;45.042;38.994;2022-12-18T05:30:11;101772.19;;;12.38;60.92
50684;BME280;36654;45.042;38.994;2022-12-18T05:32:37;101765.09;;;12.39;60.80
50684;BME280;36654;45.042;38.994;2022-12-18T05:35:04;101758.06;;;12.42;60.75
50684;BME280;36654;45.042;38.994;2022-12-18T05:37:30;101743.94;;;12.45;60.78
50684;BME280;36654;45.042;38.994;2022-12-18T05:39:56;101736.00;;;12.46;60.32
50684;BME280;36654;45.042;38.994;2022-12-18T05:42:22;101767.56;;;12.73;60.19
50684;BME280;36654;45.042;38.994;2022-12-18T05:44:47;101725.59;;;12.60;59.92
50684;BME280;36654;45.042;38.994;2022-12-18T05:47:13;101758.91;;;12.87;59.43
50684;BME280;36654;45.042;38.994;2022-12-18T05:49:39;101761.63;;;12.90;59.19
50684;BME280;36654;45.042;38.994;2022-12-18T05:52:04;101755.38;;;12.88;59.18
50684;BME280;36654;45.042;38.994;2022-12-18T05:54:30;101757.19;;;12.89;58.93
50684;BME280;36654;45.042;38.994;2022-12-18T05:56:56;101722.06;;;12.60;59.22
50684;BME280;36654;45.042;38.994;2022-12-18T05:59:22;101753.38;;;12.74;59.35
50684;BME280;36654;45.042;38.994;2022-12-18T06:01:48;101737.22;;;12.65;59.34
50684;BME280;36654;45.042;38.994;2022-12-18T06:04:14;101744.34;;;12.66;59.52
50684;BME280;36654;45.042;38.994;2022-12-18T06:06:40;101747.19;;;12.77;59.24
50684;BME280;36654;45.042;38.994;2022-12-18T06:09:05;101771.50;;;12.97;59.00
50684;BME280;36654;45.042;38.994;2022-12-18T06:11:37;101754.63;;;12.95;58.82
50684;BME280;36654;45.042;38.994;2022-12-18T06:14:04;101766.31;;;13.03;58.79
50684;BME280;36654;45.042;38.994;2022-12-18T06:16:30;101776.13;;;13.07;58.70
50684;BME280;36654;45.042;38.994;2022-12-18T06:18:57;101772.69;;;13.13;57.66
50684;BME280;36654;45.042;38.994;2022-12-18T06:21:22;101764.75;;;13.17;57.04
50684;BME280;36654;45.042;38.994;2022-12-18T06:23:48;101769.44;;;13.29;57.19
50684;BME280;36654;45.042;38.994;2022-12-18T06:26:15;101768.78;;;13.44;55.92
50684;BME280;36654;45.042;38.994;2022-12-18T06:28:41;101731.25;;;13.29;55.07
50684;BME280;36654;45.042;38.994;2022-12-18T06:31:07;101733.13;;;13.33;54.83
50684;BME280;36654;45.042;38.994;2022-12-18T06:33:33;101769.16;;;13.69;53.95
50684;BME280;36654;45.042;38.994;2022-12-18T06:36:04;101769.25;;;13.73;52.80
50684;BME280;36654;45.042;38.994;2022-12-18T06:38:33;101739.72;;;13.58;52.91
50684;BME280;36654;45.042;38.994;2022-12-18T06:40:59;101777.31;;;13.78;52.73
50684;BME280;36654;45.042;38.994;2022-12-18T06:43:25;101803.31;;;13.96;53.14
50684;BME280;36654;45.042;38.994;2022-12-18T06:45:59;101763.91;;;13.75;52.97
50684;BME280;36654;45.042;38.994;2022-12-18T06:48:24;101778.31;;;13.86;52.85
50684;BME280;36654;45.042;38.994;2022-12-18T06:50:50;101749.59;;;13.67;52.81
50684;BME280;36654;45.042;38.994;2022-12-18T06:53:16;101763.97;;;13.78;52.57
50684;BME280;36654;45.042;38.994;2022-12-18T06:55:42;101798.13;;;14.07;52.08
50684;BME280;36654;45.042;38.994;2022-12-18T06:58:08;101794.53;;;14.05;52.06
50684;BME280;36654;45.042;38.994;2022-12-18T07:00:33;101807.97;;;14.11;51.94
50684;BME280;36654;45.042;38.994;2022-12-18T07:02:59;101780.19;;;13.95;51.68
50684;BME280;36654;45.042;38.994;2022-12-18T07:05:25;101793.69;;;14.07;51.87
50684;BME280;36654;45.042;38.994;2022-12-18T07:07:50;101793.78;;;14.15;51.40
50684;BME280;36654;45.042;38.994;2022-12-18T07:10:18;101746.34;;;13.89;51.41
50684;BME280;36654;45.042;38.994;2022-12-18T07:12:44;101775.03;;;14.06;51.46
50684;BME280;36654;45.042;38.994;2022-12-18T07:15:10;101808.16;;;14.24;51.35
50684;BME280;36654;45.042;38.994;2022-12-18T07:17:36;101801.84;;;14.18;51.42
50684;BME280;36654;45.042;38.994;2022-12-18T07:20:02;101778.56;;;14.08;50.91
50684;BME280;36654;45.042;38.994;2022-12-18T07:22:28;101810.91;;;14.31;51.07
50684;BME280;36654;45.042;38.994;2022-12-18T07:24:54;101797.50;;;14.28;51.23
50684;BME280;36654;45.042;38.994;2022-12-18T07:27:21;101772.47;;;14.15;51.04
50684;BME280;36654;45.042;38.994;2022-12-18T07:29:47;101801.09;;;14.30;51.21
50684;BME280;36654;45.042;38.994;2022-12-18T07:32:13;101751.91;;;14.08;50.85
50684;BME280;36654;45.042;38.994;2022-12-18T07:34:39;101811.91;;;14.42;51.20
50684;BME280;36654;45.042;38.994;2022-12-18T07:37:05;101746.72;;;14.17;51.00
50684;BME280;36654;45.042;38.994;2022-12-18T07:39:30;101812.00;;;14.48;51.10
50684;BME280;36654;45.042;38.994;2022-12-18T07:41:56;101813.00;;;14.55;50.83
50684;BME280;36654;45.042;38.994;2022-12-18T07:44:40;101813.06;;;14.58;51.09
50684;BME280;36654;45.042;38.994;2022-12-18T07:47:06;101821.94;;;14.60;51.35
50684;BME280;36654;45.042;38.994;2022-12-18T07:49:32;101812.19;;;14.62;51.28
50684;BME280;36654;45.042;38.994;2022-12-18T07:51:58;101797.00;;;14.55;51.21
50684;BME280;36654;45.042;38.994;2022-12-18T07:54:24;101810.50;;;14.70;51.22
50684;BME280;36654;45.042;38.994;2022-12-18T07:56:51;101815.03;;;14.77;50.67
50684;BME280;36654;45.042;38.994;2022-12-18T07:59:17;101800.88;;;14.84;50.58
50684;BME280;36654;45.042;38.994;2022-12-18T08:01:43;101809.84;;;14.89;50.42
50684;BME280;36654;45.042;38.994;2022-12-18T08:04:09;101785.72;;;14.80;50.50
50684;BME280;36654;45.042;38.994;2022-12-18T08:06:35;101807.38;;;15.08;50.20
50684;BME280;36654;45.042;38.994;2022-12-18T08:09:01;101795.81;;;15.12;49.70
50684;BME280;36654;45.042;38.994;2022-12-18T08:11:27;101795.00;;;15.22;49.56
50684;BME280;36654;45.042;38.994;2022-12-18T08:13:57;101803.13;;;15.35;49.09
50684;BME280;36654;45.042;38.994;2022-12-18T08:16:23;101772.78;;;15.26;48.49
50684;BME280;36654;45.042;38.994;2022-12-18T08:18:52;101762.13;;;15.29;48.47
50684;BME280;36654;45.042;38.994;2022-12-18T08:21:24;101782.81;;;15.57;47.83
50684;BME280;36654;45.042;38.994;2022-12-18T08:23:53;101739.06;;;15.41;47.87
50684;BME280;36654;45.042;38.994;2022-12-18T08:26:19;101780.28;;;15.70;47.82
50684;BME280;36654;45.042;38.994;2022-12-18T08:28:45;101776.72;;;15.71;47.53
50684;BME280;36654;45.042;38.994;2022-12-18T08:31:11;101730.25;;;15.54;47.31
50684;BME280;36654;45.042;38.994;2022-12-18T08:33:38;101794.66;;;15.88;47.46
50684;BME280;36654;45.042;38.994;2022-12-18T08:36:04;101784.00;;;15.94;47.25
50684;BME280;36654;45.042;38.994;2022-12-18T08:38:31;101782.25;;;16.02;47.25
50684;BME280;36654;45.042;38.994;2022-12-18T08:41:01;101786.72;;;16.05;47.07
50684;BME280;36654;45.042;38.994;2022-12-18T08:43:27;101780.47;;;16.04;47.15
50684;BME280;36654;45.042;38.994;2022-12-18T08:46:12;101729.53;;;15.80;47.75
50684;BME280;36654;45.042;38.994;2022-12-18T08:48:38;101726.88;;;15.80;47.29
50684;BME280;36654;45.042;38.994;2022-12-18T08:51:03;101785.91;;;16.20;47.48
50684;BME280;36654;45.042;38.994;2022-12-18T08:53:29;101742.19;;;16.08;46.71
50684;BME280;36654;45.042;38.994;2022-12-18T08:55:56;101714.53;;;16.06;46.47
50684;BME280;36654;45.042;38.994;2022-12-18T08:58:22;101751.22;;;16.43;45.91
50684;BME280;36654;45.042;38.994;2022-12-18T09:00:48;101761.03;;;16.50;45.96
50684;BME280;36654;45.042;38.994;2022-12-18T09:03:15;101762.88;;;16.61;45.92
50684;BME280;36654;45.042;38.994;2022-12-18T09:05:41;101730.72;;;16.52;45.80
50684;BME280;36654;45.042;38.994;2022-12-18T09:08:10;101719.16;;;16.55;45.40
50684;BME280;36654;45.042;38.994;2022-12-18T09:10:42;101666.44;;;16.34;45.20
50684;BME280;36654;45.042;38.994;2022-12-18T09:13:09;101750.47;;;16.88;45.20
50684;BME280;36654;45.042;38.994;2022-12-18T09:15:46;101762.97;;;16.97;45.31
50684;BME280;36654;45.042;38.994;2022-12-18T09:18:14;101753.13;;;16.79;45.99
50684;BME280;36654;45.042;38.994;2022-12-18T09:20:40;101764.75;;;17.04;45.81
50684;BME280;36654;45.042;38.994;2022-12-18T09:23:07;101778.16;;;17.12;45.18
50684;BME280;36654;45.042;38.994;2022-12-18T09:25:33;101766.56;;;17.16;45.15
50684;BME280;36654;45.042;38.994;2022-12-18T09:28:06;101763.84;;;17.07;45.00
50684;BME280;36654;45.042;38.994;2022-12-18T09:30:37;101746.91;;;16.95;45.46
50684;BME280;36654;45.042;38.994;2022-12-18T09:33:03;101757.63;;;17.03;45.34
50684;BME280;36654;45.042;38.994;2022-12-18T09:35:29;101755.84;;;17.03;45.73
50684;BME280;36654;45.042;38.994;2022-12-18T09:37:54;101750.47;;;16.97;45.54
50684;BME280;36654;45.042;38.994;2022-12-18T09:40:23;101743.31;;;17.12;45.55
50684;BME280;36654;45.042;38.994;2022-12-18T09:43:02;101750.47;;;16.97;45.53
50684;BME280;36654;45.042;38.994;2022-12-18T09:45:37;101763.88;;;17.08;45.85
50684;BME280;36654;45.042;38.994;2022-12-18T09:48:05;101743.34;;;17.02;46.13
50684;BME280;36654;45.042;38.994;2022-12-18T09:50:37;101760.31;;;17.11;46.16
50684;BME280;36654;45.042;38.994;2022-12-18T09:53:07;101752.25;;;17.14;46.21
50684;BME280;36654;45.042;38.994;2022-12-18T09:55:40;101751.38;;;17.10;46.11
50684;BME280;36654;45.042;38.994;2022-12-18T10:00:37;101747.81;;;17.00;46.11
50684;BME280;36654;45.042;38.994;2022-12-18T10:03:11;101745.13;;;16.97;46.45
50684;BME280;36654;45.042;38.994;2022-12-18T10:10:52;101748.69;;;16.98;47.06
50684;BME280;36654;45.042;38.994;2022-12-18T10:21:34;101752.25;;;16.86;47.87
50684;BME280;36654;45.042;38.994;2022-12-18T10:26:36;101753.97;;;16.76;47.93
50684;BME280;36654;45.042;38.994;2022-12-18T10:29:11;101771.78;;;16.70;48.32
50684;BME280;36654;45.042;38.994;2022-12-18T10:31:37;101757.53;;;16.68;48.19
50684;BME280;36654;45.042;38.994;2022-12-18T10:34:03;101701.22;;;16.23;47.97
50684;BME280;36654;45.042;38.994;2022-12-18T10:36:29;101752.13;;;16.40;48.24
50684;BME280;36654;45.042;38.994;2022-12-18T10:39:14;101762.81;;;16.43;48.40
50684;BME280;36654;45.042;38.994;2022-12-18T10:41:40;101777.06;;;16.39;48.52
50684;BME280;36654;45.042;38.994;2022-12-18T10:44:23;101760.97;;;16.25;49.05
50684;BME280;36654;45.042;38.994;2022-12-18T10:46:54;101800.25;;;16.31;49.08
50684;BME280;36654;45.042;38.994;2022-12-18T10:49:29;101806.44;;;16.30;49.67
50684;BME280;36654;45.042;38.994;2022-12-18T10:52:24;101776.94;;;16.08;50.14
50684;BME280;36654;45.042;38.994;2022-12-18T10:55:02;101807.34;;;16.23;51.94
50684;BME280;36654;45.042;38.994;2022-12-18T10:57:37;101810.81;;;16.12;53.25
50684;BME280;36654;45.042;38.994;2022-12-18T11:00:24;101822.41;;;16.07;54.33
50684;BME280;36654;45.042;38.994;2022-12-18T11:02:50;101835.72;;;15.96;56.15
50684;BME280;36654;45.042;38.994;2022-12-18T11:05:25;101827.63;;;15.85;57.04
50684;BME280;36654;45.042;38.994;2022-12-18T11:07:52;101828.44;;;15.73;58.32
50684;BME280;36654;45.042;38.994;2022-12-18T11:10:21;101837.16;;;15.57;59.02
50684;BME280;36654;45.042;38.994;2022-12-18T11:12:47;101836.19;;;15.43;59.57
50684;BME280;36654;45.042;38.994;2022-12-18T11:15:21;101832.53;;;15.35;60.33
50684;BME280;36654;45.042;38.994;2022-12-18T11:17:50;101832.44;;;15.27;60.43
50684;BME280;36654;45.042;38.994;2022-12-18T11:23:12;101804.56;;;14.93;61.90
50684;BME280;36654;45.042;38.994;2022-12-18T11:25:38;101806.22;;;14.84;62.37
50684;BME280;36654;45.042;38.994;2022-12-18T11:28:24;101831.19;;;14.89;63.22
50684;BME280;36654;45.042;38.994;2022-12-18T11:31:09;101850.78;;;14.92;63.97
50684;BME280;36654;45.042;38.994;2022-12-18T11:33:39;101856.03;;;14.82;64.38
50684;BME280;36654;45.042;38.994;2022-12-18T11:36:09;101856.00;;;14.79;65.31
50684;BME280;36654;45.042;38.994;2022-12-18T11:38:43;101854.16;;;14.74;66.41
50684;BME280;36654;45.042;38.994;2022-12-18T11:41:31;101825.34;;;14.48;67.22
50684;BME280;36654;45.042;38.994;2022-12-18T11:44:35;101852.09;;;14.53;68.02
50684;BME280;36654;45.042;38.994;2022-12-18T11:47:11;101850.19;;;14.44;69.15
50684;BME280;36654;45.042;38.994;2022-12-18T11:49:40;101849.22;;;14.37;69.54
50684;BME280;36654;45.042;38.994;2022-12-18T11:54:43;101887.41;;;14.35;71.94
50684;BME280;36654;45.042;38.994;2022-12-18T11:57:41;101902.53;;;14.34;72.51
50684;BME280;36654;45.042;38.994;2022-12-18T12:00:16;101854.94;;;14.02;73.58
50684;BME280;36654;45.042;38.994;2022-12-18T12:03:00;101893.38;;;14.15;74.73
50684;BME280;36654;45.042;38.994;2022-12-18T12:11:27;101924.25;;;14.02;77.39
50684;BME280;36654;45.042;38.994;2022-12-18T12:16:58;101932.91;;;13.88;78.19
50684;BME280;36654;45.042;38.994;2022-12-18T12:22:25;101940.97;;;13.91;78.85
50684;BME280;36654;45.042;38.994;2022-12-18T12:39:06;101940.38;;;13.57;82.74
50684;BME280;36654;45.042;38.994;2022-12-18T12:41:34;101947.41;;;13.52;83.45
50684;BME280;36654;45.042;38.994;2022-12-18T12:44:32;101956.19;;;13.48;83.90
50684;BME280;36654;45.042;38.994;2022-12-18T12:47:13;101975.75;;;13.48;84.22
50684;BME280;36654;45.042;38.994;2022-12-18T12:49:40;101915.53;;;13.12;84.23
50684;BME280;36654;45.042;38.994;2022-12-18T12:52:12;101945.97;;;13.25;84.15
50684;BME280;36654;45.042;38.994;2022-12-18T12:54:39;101948.47;;;13.17;84.06
50684;BME280;36654;45.042;38.994;2022-12-18T12:57:15;101972.31;;;13.11;83.50
50684;BME280;36654;45.042;38.994;2022-12-18T13:07:57;101979.84;;;12.88;82.73
50684;BME280;36654;45.042;38.994;2022-12-18T13:10:31;101968.03;;;12.76;82.58
50684;BME280;36654;45.042;38.994;2022-12-18T13:13:02;101985.84;;;12.80;82.43
50684;BME280;36654;45.042;38.994;2022-12-18T13:20:36;101985.34;;;12.57;82.78
50684;BME280;36654;45.042;38.994;2022-12-18T13:23:38;102012.00;;;12.60;82.93
50684;BME280;36654;45.042;38.994;2022-12-18T13:33:45;101977.72;;;11.98;83.82
50684;BME280;36654;45.042;38.994;2022-12-18T13:39:11;102049.06;;;12.16;83.45
50684;BME280;36654;45.042;38.994;2022-12-18T13:41:37;102051.50;;;12.08;83.26
50684;BME280;36654;45.042;38.994;2022-12-18T13:44:33;102056.59;;;11.99;83.04
50684;BME280;36654;45.042;38.994;2022-12-18T13:46:58;102066.91;;;11.86;83.04
50684;BME280;36654;45.042;38.994;2022-12-18T13:51:58;102039.47;;;11.56;83.37
50684;BME280;36654;45.042;38.994;2022-12-18T13:56:50;102067.72;;;11.54;83.80
50684;BME280;36654;45.042;38.994;2022-12-18T13:59:32;102081.69;;;11.47;83.99
50684;BME280;36654;45.042;38.994;2022-12-18T14:02:12;102080.97;;;11.22;84.35
50684;BME280;36654;45.042;38.994;2022-12-18T14:04:38;102078.06;;;11.14;84.61
50684;BME280;36654;45.042;38.994;2022-12-18T14:07:07;102093.28;;;11.20;84.71
50684;BME280;36654;45.042;38.994;2022-12-18T14:09:42;102091.88;;;11.02;84.51
50684;BME280;36654;45.042;38.994;2022-12-18T14:15:03;102113.00;;;10.71;84.84
50684;BME280;36654;45.042;38.994;2022-12-18T14:17:32;102101.84;;;10.55;84.92
50684;BME280;36654;45.042;38.994;2022-12-18T14:19:57;102106.25;;;10.55;84.90
50684;BME280;36654;45.042;38.994;2022-12-18T14:22:25;102111.16;;;10.43;84.92
50684;BME280;36654;45.042;38.994;2022-12-18T14:25:21;102134.38;;;10.50;85.21
50684;BME280;36654;45.042;38.994;2022-12-18T14:28:14;102120.53;;;10.33;85.19
50684;BME280;36654;45.042;38.994;2022-12-18T14:30:45;102084.28;;;10.06;85.17
50684;BME280;36654;45.042;38.994;2022-12-18T14:33:19;102126.50;;;10.27;85.38
50684;BME280;36654;45.042;38.994;2022-12-18T14:41:02;102149.13;;;10.18;85.11
50684;BME280;36654;45.042;38.994;2022-12-18T14:43:32;102163.06;;;10.12;85.23
50684;BME280;36654;45.042;38.994;2022-12-18T14:45:58;102033.88;;;9.29;85.07
50684;BME280;36654;45.042;38.994;2022-12-18T14:58:50;102187.44;;;9.78;86.55
50684;BME280;36654;45.042;38.994;2022-12-18T15:01:34;102199.59;;;9.72;86.23
50684;BME280;36654;45.042;38.994;2022-12-18T15:04:02;102178.06;;;9.63;85.93